Time;durP1;ratioP1;P1;durP2;ratioP2;P2;SDS_P1;SDS_P2;PMS_P1;PMS_P2;Temp;Humidity;BMP_temperature;BMP_pressure;BME280_temperature;BME280_humidity;BME280_pressure;Samples;Min_cycle;Max_cycle;Signal;HPM_P1;HPM_P2
2024/03/05 06:14:45;;;;;;;4.35;1.05;;;;;;;;;;4838526;29;20057;-87
2024/03/05 06:17:16;;;;;;;4.25;1.20;;;;;;;;;;4837772;29;20164;-87
2024/03/05 06:19:43;;;;;;;2.50;0.97;;;;;;;;;;4833462;29;20038;-85
2024/03/05 06:22:28;;;;;;;6.32;1.25;;;;;;;;;;4836761;29;20046;-91
2024/03/05 06:25:08;;;;;;;5.80;1.40;;;;;;;;;;4846002;24;20065;-91
2024/03/05 14:38:34;;;;;;;4.93;1.55;;;;;;;;;;5757833;24;21525;-87
2024/03/05 14:41:00;;;;;;;1.50;0.30;;;;;;;;;;4835789;29;20061;-84
2024/03/05 14:54:41;;;;;;;0.00;0.00;;;;;;;;;;5196243;24;20064;-83
2024/03/05 14:57:07;;;;;;;0.00;0.00;;;;;;;;;;4852876;29;20404;-87
2024/03/05 15:02:47;;;;;;;0.00;0.00;;;;;;;;;;4849829;29;20053;-84
2024/03/05 15:05:13;;;;;;;0.00;0.00;;;;;;;;;;4829248;29;20125;-84
2024/03/05 15:07:39;;;;;;;0.00;0.00;;;;;;;;;;4839129;29;20105;-85
2024/03/05 15:10:16;;;;;;;0.00;0.00;;;;;;;;;;4841253;29;20602;-85
2024/03/05 15:18:35;;;;;;;0.10;0.00;;;;;;;;;;4814335;29;20098;-85
2024/03/05 15:21:08;;;;;;;0.38;0.10;;;;;;;;;;4829549;29;20037;-84
2024/03/05 15:23:34;;;;;;;0.22;0.00;;;;;;;;;;4842789;29;20053;-84
2024/03/05 15:26:00;;;;;;;1.08;0.00;;;;;;;;;;4843911;29;20032;-84
2024/03/05 15:28:26;;;;;;;0.00;0.00;;;;;;;;;;4828600;29;20085;-85
2024/03/05 15:30:53;;;;;;;7.80;0.75;;;;;;;;;;4828442;29;20034;-85
2024/03/05 15:33:19;;;;;;;1.08;0.00;;;;;;;;;;4827490;29;20129;-85
2024/03/05 15:44:01;;;;;;;0.08;0.00;;;;;;;;;;4892351;24;20092;-87
2024/03/05 16:46:33;;;;;;;;;;;;;;;;;;;;;
2024/03/05 16:49:08;;;;;;;0.57;0.20;;;;;;;;;;4819452;29;20408;-83
2024/03/05 16:51:35;;;;;;;0.73;0.20;;;;;;;;;;4827665;29;20049;-83
2024/03/05 16:54:06;;;;;;;0.32;0.15;;;;;;;;;;4830706;29;20043;-83
2024/03/05 16:56:43;;;;;;;2.15;0.50;;;;;;;;;;4827216;29;20055;-84
2024/03/05 16:59:51;;;;;;;0.35;0.20;;;;;;;;;;4823264;29;20940;-84
2024/03/05 17:23:18;;;;;;;0.50;0.20;;;;;;;;;;4837644;29;19963;-85
2024/03/05 17:28:51;;;;;;;0.10;0.10;;;;;;;;;;4832133;29;20050;-87
2024/03/05 17:43:35;;;;;;;1.60;0.50;;;;;;;;;;5030043;24;20099;-85
2024/03/05 17:56:50;;;;;;;2.22;0.85;;;;;;;;;;4853796;29;20136;-83
2024/03/05 17:59:16;;;;;;;2.50;1.42;;;;;;;;;;4859794;29;20549;-81
2024/03/05 18:01:42;;;;;;;0.63;0.25;;;;;;;;;;4862449;29;20049;-82
2024/03/05 18:04:16;;;;;;;4.60;0.70;;;;;;;;;;4849777;24;21394;-84
2024/03/05 18:07:04;;;;;;;5.18;1.55;;;;;;;;;;4846953;29;20045;-83
2024/03/05 19:04:10;;;;;;;4.85;1.52;;;;;;;;;;4871935;24;20081;-88
2024/03/05 19:06:38;;;;;;;5.55;1.52;;;;;;;;;;4820729;29;20043;-88
2024/03/05 19:09:05;;;;;;;2.90;0.60;;;;;;;;;;4822193;29;20047;-88
2024/03/05 19:11:31;;;;;;;1.33;0.68;;;;;;;;;;4831480;29;20129;-86
2024/03/05 19:13:57;;;;;;;0.93;0.38;;;;;;;;;;4814454;29;20066;-85
2024/03/05 19:16:27;;;;;;;1.00;0.20;;;;;;;;;;4828554;29;20104;-85
2024/03/05 19:18:53;;;;;;;0.43;0.22;;;;;;;;;;4815392;29;20491;-84
2024/03/05 19:30:23;;;;;;;1.73;0.82;;;;;;;;;;4790561;29;20394;-84
2024/03/05 19:32:50;;;;;;;5.75;1.73;;;;;;;;;;4819962;29;20573;-83
2024/03/05 19:40:59;;;;;;;3.08;0.90;;;;;;;;;;5604554;24;20130;-85
2024/03/05 19:46:59;;;;;;;3.13;0.95;;;;;;;;;;4774814;30;20047;-84
2024/03/05 19:50:04;;;;;;;4.38;0.80;;;;;;;;;;4782181;30;20546;-84
2024/03/05 19:59:28;;;;;;;1.70;0.70;;;;;;;;;;4798621;29;20050;-85
2024/03/05 20:01:55;;;;;;;2.13;0.57;;;;;;;;;;4856873;29;20050;-85
2024/03/05 20:04:21;;;;;;;0.15;0.15;;;;;;;;;;4827625;29;20042;-84
2024/03/05 20:06:48;;;;;;;4.38;0.90;;;;;;;;;;4834241;29;20808;-83
2024/03/05 20:09:16;;;;;;;2.47;0.85;;;;;;;;;;4836993;29;20075;-84
2024/03/05 20:11:42;;;;;;;1.80;0.63;;;;;;;;;;4839026;29;20492;-85
2024/03/05 20:14:09;;;;;;;2.75;1.45;;;;;;;;;;4841463;29;20038;-85
2024/03/05 20:16:36;;;;;;;5.32;1.27;;;;;;;;;;4839487;29;20103;-84
2024/03/05 20:19:02;;;;;;;2.65;0.60;;;;;;;;;;4837194;29;20425;-84
2024/03/05 20:21:28;;;;;;;7.00;1.45;;;;;;;;;;4848348;29;20064;-84
2024/03/05 20:23:57;;;;;;;4.00;1.05;;;;;;;;;;4828964;29;20087;-84
2024/03/05 20:26:23;;;;;;;3.70;0.73;;;;;;;;;;4824638;29;20139;-84
2024/03/05 20:28:52;;;;;;;2.08;0.90;;;;;;;;;;4827988;29;20117;-84
2024/03/05 20:31:20;;;;;;;0.60;0.35;;;;;;;;;;4831635;29;20093;-84
2024/03/05 20:33:46;;;;;;;3.90;0.90;;;;;;;;;;4835982;29;20093;-84
2024/03/05 20:36:13;;;;;;;2.38;0.88;;;;;;;;;;4839349;29;20053;-84
2024/03/05 20:38:41;;;;;;;3.28;1.00;;;;;;;;;;4838512;29;20042;-84
2024/03/05 20:41:08;;;;;;;2.10;0.68;;;;;;;;;;4835449;29;20053;-84
2024/03/05 20:43:35;;;;;;;5.65;2.42;;;;;;;;;;4830673;29;20046;-85
2024/03/05 20:46:01;;;;;;;3.22;1.50;;;;;;;;;;4841532;29;20136;-85
2024/03/05 20:48:27;;;;;;;6.28;1.48;;;;;;;;;;4837889;29;20052;-85
2024/03/05 20:50:53;;;;;;;4.93;1.48;;;;;;;;;;4837899;29;20041;-84
2024/03/05 20:53:19;;;;;;;5.07;1.05;;;;;;;;;;4837356;29;20467;-84
2024/03/05 20:55:46;;;;;;;3.67;1.23;;;;;;;;;;4837620;29;20085;-85
2024/03/05 20:58:13;;;;;;;3.10;1.27;;;;;;;;;;4835710;29;20049;-84
2024/03/05 21:00:40;;;;;;;6.10;1.05;;;;;;;;;;4850788;29;20585;-85
2024/03/05 21:03:10;;;;;;;7.90;3.00;;;;;;;;;;4843282;29;20086;-85
2024/03/05 21:05:36;;;;;;;7.93;2.78;;;;;;;;;;4824638;29;20060;-84
2024/03/05 21:08:02;;;;;;;6.95;2.55;;;;;;;;;;4837774;29;20078;-85
2024/03/05 21:10:28;;;;;;;17.15;3.00;;;;;;;;;;4830917;29;20069;-85
2024/03/05 21:12:54;;;;;;;12.32;3.38;;;;;;;;;;4833264;29;20121;-85
2024/03/05 21:15:20;;;;;;;7.80;2.63;;;;;;;;;;4843346;29;20182;-85
2024/03/05 21:17:52;;;;;;;6.13;2.60;;;;;;;;;;4840727;29;20365;-85
2024/03/05 21:20:18;;;;;;;8.93;2.63;;;;;;;;;;4856974;29;20128;-84
2024/03/05 21:22:44;;;;;;;5.07;1.42;;;;;;;;;;4835630;29;20412;-85
2024/03/05 21:25:10;;;;;;;3.15;1.15;;;;;;;;;;4840930;29;20045;-85
2024/03/05 21:27:37;;;;;;;3.38;1.13;;;;;;;;;;4840099;29;20046;-85
2024/03/05 21:30:04;;;;;;;3.72;0.77;;;;;;;;;;4841624;29;20110;-85
2024/03/05 21:32:30;;;;;;;2.50;1.00;;;;;;;;;;4850052;29;20050;-85
2024/03/05 21:34:56;;;;;;;4.00;1.40;;;;;;;;;;4832712;29;20053;-85
2024/03/05 21:37:22;;;;;;;11.48;1.52;;;;;;;;;;4839196;29;20041;-85
2024/03/05 21:39:48;;;;;;;7.13;2.53;;;;;;;;;;4838446;29;20056;-85
2024/03/05 21:42:15;;;;;;;14.48;5.80;;;;;;;;;;4849244;29;20054;-85
2024/03/05 21:44:41;;;;;;;5.72;2.15;;;;;;;;;;4834806;29;20138;-85
2024/03/05 21:47:07;;;;;;;8.57;3.35;;;;;;;;;;4839564;29;20046;-85
2024/03/05 21:49:33;;;;;;;6.13;2.13;;;;;;;;;;4842750;29;20050;-85
2024/03/05 21:52:00;;;;;;;3.53;1.38;;;;;;;;;;4857365;29;20034;-85
2024/03/05 21:54:26;;;;;;;5.10;1.58;;;;;;;;;;4829599;29;20501;-85
2024/03/05 21:56:53;;;;;;;3.72;1.48;;;;;;;;;;4832948;29;20041;-85
2024/03/05 21:59:19;;;;;;;3.45;1.17;;;;;;;;;;4842844;29;20057;-85
2024/03/05 22:01:47;;;;;;;4.88;1.80;;;;;;;;;;4846164;29;20045;-85
2024/03/05 22:04:13;;;;;;;5.80;2.15;;;;;;;;;;4845793;29;20103;-85
2024/03/05 22:06:39;;;;;;;7.70;2.30;;;;;;;;;;4839972;29;20046;-85
2024/03/05 22:09:10;;;;;;;7.07;2.28;;;;;;;;;;4857419;29;20053;-84
2024/03/05 22:11:40;;;;;;;4.30;2.07;;;;;;;;;;4844075;29;20041;-85
2024/03/05 22:14:11;;;;;;;5.18;2.10;;;;;;;;;;4848269;29;20058;-84
2024/03/05 22:16:38;;;;;;;5.68;0.93;;;;;;;;;;4841667;29;20046;-85
2024/03/05 22:19:04;;;;;;;4.68;1.65;;;;;;;;;;4841380;29;20138;-85
2024/03/05 22:21:31;;;;;;;3.55;1.25;;;;;;;;;;4849679;29;20423;-84
2024/03/05 22:23:57;;;;;;;3.53;1.27;;;;;;;;;;4854979;29;20041;-84
2024/03/05 22:26:23;;;;;;;6.72;1.58;;;;;;;;;;4860204;29;20511;-85
2024/03/05 22:28:49;;;;;;;4.35;1.38;;;;;;;;;;4829121;29;20049;-84
2024/03/05 22:31:15;;;;;;;7.10;1.67;;;;;;;;;;4841523;29;20049;-84
2024/03/05 22:33:41;;;;;;;2.28;1.15;;;;;;;;;;4843307;29;20617;-84
2024/03/05 22:36:07;;;;;;;2.15;1.23;;;;;;;;;;4840420;29;20061;-85
2024/03/05 22:38:33;;;;;;;4.55;1.20;;;;;;;;;;4836007;29;20148;-85
2024/03/05 22:40:59;;;;;;;4.95;1.52;;;;;;;;;;4849559;29;20061;-85
2024/03/05 22:43:25;;;;;;;3.00;1.17;;;;;;;;;;4834732;29;20050;-85
2024/03/05 22:45:51;;;;;;;7.10;1.30;;;;;;;;;;4834410;29;20075;-85
2024/03/05 22:48:17;;;;;;;6.30;2.13;;;;;;;;;;4852484;29;20054;-85
2024/03/05 22:50:43;;;;;;;4.10;1.30;;;;;;;;;;4857396;29;20052;-85
2024/03/05 22:53:09;;;;;;;4.75;1.48;;;;;;;;;;4839030;29;20042;-85
2024/03/05 22:55:35;;;;;;;4.63;1.38;;;;;;;;;;4827785;29;20533;-85
2024/03/05 22:58:03;;;;;;;5.50;1.73;;;;;;;;;;4843096;29;20043;-85
2024/03/05 23:00:35;;;;;;;13.63;2.67;;;;;;;;;;4840643;29;20544;-85
2024/03/05 23:03:03;;;;;;;4.55;1.63;;;;;;;;;;4843918;29;20506;-85
2024/03/05 23:05:32;;;;;;;3.58;1.20;;;;;;;;;;4836128;29;20053;-86
2024/03/05 23:08:01;;;;;;;4.00;0.68;;;;;;;;;;4840926;29;20442;-85
2024/03/05 23:10:28;;;;;;;4.13;0.75;;;;;;;;;;4839027;29;20049;-85
2024/03/05 23:12:57;;;;;;;5.28;1.20;;;;;;;;;;4840863;29;20042;-85
2024/03/05 23:15:24;;;;;;;2.63;0.77;;;;;;;;;;4840599;29;20081;-85
2024/03/05 23:17:51;;;;;;;1.50;0.60;;;;;;;;;;4856143;29;20053;-85
2024/03/05 23:20:17;;;;;;;3.88;0.93;;;;;;;;;;4830218;29;20089;-84
2024/03/05 23:22:43;;;;;;;2.40;0.75;;;;;;;;;;4839611;29;20052;-85
2024/03/05 23:25:10;;;;;;;1.70;0.75;;;;;;;;;;4842304;29;20057;-85
2024/03/05 23:27:36;;;;;;;1.63;0.50;;;;;;;;;;4845326;29;20156;-85
2024/03/05 23:30:06;;;;;;;1.63;0.50;;;;;;;;;;4842373;29;20400;-85
2024/03/05 23:32:32;;;;;;;3.08;1.00;;;;;;;;;;4840464;29;20041;-84
2024/03/05 23:35:01;;;;;;;5.15;1.55;;;;;;;;;;4840522;29;20042;-85
2024/03/05 23:37:27;;;;;;;3.90;0.98;;;;;;;;;;4840745;29;20038;-86
2024/03/05 23:39:53;;;;;;;4.68;1.10;;;;;;;;;;4828529;29;20060;-86
2024/03/05 23:42:19;;;;;;;5.32;1.60;;;;;;;;;;4837753;29;20080;-85
2024/03/05 23:44:46;;;;;;;3.85;1.15;;;;;;;;;;4836689;29;20709;-85
2024/03/05 23:47:12;;;;;;;4.22;1.50;;;;;;;;;;4838232;29;20045;-86
2024/03/05 23:49:38;;;;;;;4.70;1.33;;;;;;;;;;4854925;29;20488;-86
2024/03/05 23:52:04;;;;;;;1.98;0.75;;;;;;;;;;4836945;29;20030;-86
2024/03/05 23:54:30;;;;;;;2.08;0.77;;;;;;;;;;4846488;29;20053;-85
2024/03/05 23:56:56;;;;;;;3.13;1.42;;;;;;;;;;4838870;29;20037;-86
2024/03/05 23:59:22;;;;;;;3.05;1.42;;;;;;;;;;4830258;29;20044;-86
